Hovedside
METAR-TAF:

METAR-TAF

Lufthavner :

Halli lufthavn

Jämsä, Finland

breddegrad: 61-51N, lengdegrad: 024-48E, høyde over havet: 143 m

Gjeldene værobservasjon

Denne rapporten ble laget for 34 minutter siden, klokken 04:20 UTC
Vind 3 kt fra skiftende retning, skiftende mellom Øst og Vest-nordvest
Temperatur 9°C
Luftfuktighet 100%
Trykk 1012 hPa
Sikt: 5000 m
Overskyet i en høyde av 400 ft

METAR: EFHA 160420Z AUTO VRB03KT 090V290 5000 OVC004 09/09 Q1012

Tid: 07:54 (04:54 UTC)

Varsel

Denne rapporten ble laget for 2 timer og 22 minutter siden, klokken 02:32 UTC
Varsel gyldig fra 16. klokken 03 UTC til 16. klokken 12 UTC
Vind 6 kt fra Sør
Sikt 10 km eller mer
Brutte skyer i en høyde av 700 ft
Midlertidig
fra 16. klokken 03 UTC til 16. klokken 07 UTC
Sikt: 3000 m
Brutte skyer i en høyde av 400 ft
dis
Blir
fra 16. klokken 08 UTC til 16. klokken 10 UTC
Spredte skyer i en høyde av 1000 ft

TAF: EFHA 160232Z 1603/1612 18006KT 9999 BKN007 TEMPO 1603/1607 3000 BR BKN004 BECMG 1608/1610 SCT010

Værobservasjoner og værvarsel for over 4000 flyplasser (METAR- og TAF-rapporter).

Tilgjengelige stasjoner er representert av de røde og gule prikkene på kartet.

Hold musepekeren over prikken for å se navnet på stasjonen.

Klikk så for å se værobservasjoner og -varsler.

For å forandre kartet kan du klikke på den grønne knappen med svart kryss for å zoome inn, på den grønne knappen med strek for å zoome ut, eller på de grønne pilene for å se tilstøtende kart.


METAR-TAF: